createdAt,value
2022-11-09T00:00:57.053Z,0
2022-11-09T00:01:57.041Z,0
2022-11-09T00:02:57.045Z,0
2022-11-09T00:03:57.064Z,0
2022-11-09T00:04:57.047Z,0
2022-11-09T00:05:57.044Z,0
2022-11-09T00:06:57.094Z,0
2022-11-09T00:07:57.069Z,0
2022-11-09T00:08:57.243Z,0
2022-11-09T00:09:57.112Z,0
2022-11-09T00:10:57.046Z,0
2022-11-09T00:11:57.047Z,0
2022-11-09T00:12:57.048Z,0
2022-11-09T00:13:57.065Z,0
2022-11-09T00:14:57.051Z,0
2022-11-09T00:15:57.043Z,0
2022-11-09T00:16:57.043Z,0
2022-11-09T00:17:57.044Z,0
2022-11-09T00:18:57.246Z,0
2022-11-09T00:19:57.056Z,0
2022-11-09T00:20:57.109Z,0
2022-11-09T00:21:57.050Z,0
2022-11-09T00:22:57.084Z,0
2022-11-09T00:23:57.069Z,0
2022-11-09T00:24:57.068Z,0
2022-11-09T00:25:57.053Z,0
2022-11-09T00:26:57.057Z,0
2022-11-09T00:27:57.058Z,0
2022-11-09T00:28:57.088Z,0
2022-11-09T00:29:57.056Z,0
2022-11-09T00:30:57.055Z,0
2022-11-09T00:31:57.047Z,0
2022-11-09T00:32:57.050Z,0
2022-11-09T00:33:57.070Z,0
2022-11-09T00:34:57.153Z,0
2022-11-09T00:35:57.068Z,0
2022-11-09T00:36:57.057Z,0
2022-11-09T00:37:57.106Z,0
2022-11-09T00:38:57.074Z,0
2022-11-09T00:39:57.066Z,0
2022-11-09T00:40:57.061Z,0
2022-11-09T00:41:57.064Z,0
2022-11-09T00:42:57.049Z,0
2022-11-09T00:43:57.068Z,0
2022-11-09T00:44:57.056Z,0
2022-11-09T00:45:57.054Z,0
2022-11-09T00:46:57.051Z,0
2022-11-09T00:47:57.058Z,0
2022-11-09T00:48:57.077Z,0
2022-11-09T00:49:57.055Z,0
2022-11-09T00:50:57.060Z,0
2022-11-09T00:51:57.073Z,0
2022-11-09T00:52:57.073Z,0
2022-11-09T00:53:57.078Z,0
2022-11-09T00:54:57.074Z,0
2022-11-09T00:55:57.054Z,0
2022-11-09T00:56:57.055Z,0
2022-11-09T00:57:57.155Z,0
2022-11-09T00:58:57.067Z,0
2022-11-09T00:59:57.047Z,0
2022-11-09T01:00:57.199Z,0
2022-11-09T01:01:57.065Z,0
2022-11-09T01:02:57.050Z,0
2022-11-09T01:03:57.073Z,0
2022-11-09T01:04:57.053Z,0
2022-11-09T01:05:57.063Z,0
2022-11-09T01:06:57.191Z,0
2022-11-09T01:07:57.062Z,0
2022-11-09T01:08:57.077Z,0
2022-11-09T01:09:57.056Z,0
2022-11-09T01:10:57.062Z,0
2022-11-09T01:11:57.052Z,0
2022-11-09T01:12:57.052Z,0
2022-11-09T01:13:57.057Z,0
2022-11-09T01:14:57.044Z,0
2022-11-09T01:15:57.045Z,0
2022-11-09T01:16:57.051Z,0
2022-11-09T01:17:57.043Z,0
2022-11-09T01:18:57.072Z,0
2022-11-09T01:19:57.047Z,0
2022-11-09T01:20:57.053Z,0
2022-11-09T01:21:57.070Z,0
2022-11-09T01:22:57.069Z,0
2022-11-09T01:23:57.064Z,0
2022-11-09T01:24:57.055Z,0
2022-11-09T01:25:57.055Z,0
2022-11-09T01:26:57.051Z,0
2022-11-09T01:27:57.049Z,0
2022-11-09T01:28:57.070Z,0
2022-11-09T01:29:57.044Z,0
2022-11-09T01:30:57.046Z,0
2022-11-09T01:31:57.067Z,0
2022-11-09T01:32:57.050Z,0
2022-11-09T01:33:57.067Z,0
2022-11-09T01:34:57.175Z,0
2022-11-09T01:35:57.052Z,0
2022-11-09T01:36:57.057Z,0
2022-11-09T01:37:57.072Z,0
2022-11-09T01:38:57.093Z,0
2022-11-09T01:39:57.050Z,0
2022-11-09T01:40:57.050Z,0
2022-11-09T01:41:57.052Z,0
2022-11-09T01:42:57.053Z,0
2022-11-09T01:43:57.068Z,0
2022-11-09T01:44:57.052Z,0
2022-11-09T01:45:57.049Z,0
2022-11-09T01:46:57.050Z,0
2022-11-09T01:47:57.049Z,0
2022-11-09T01:48:57.066Z,0
2022-11-09T01:49:57.054Z,0
2022-11-09T01:50:57.071Z,0
2022-11-09T01:51:57.052Z,0
2022-11-09T01:52:57.070Z,0
2022-11-09T01:53:57.081Z,0
2022-11-09T01:54:57.060Z,0
2022-11-09T01:55:57.054Z,0
2022-11-09T01:56:57.053Z,0
2022-11-09T01:57:57.052Z,0
2022-11-09T01:58:57.071Z,0
2022-11-09T01:59:57.048Z,0
2022-11-09T02:00:57.066Z,0
2022-11-09T02:01:57.054Z,0
2022-11-09T02:02:57.050Z,0
2022-11-09T02:03:57.074Z,0
2022-11-09T02:04:57.049Z,0
2022-11-09T02:05:57.050Z,0
2022-11-09T02:06:57.141Z,0
2022-11-09T02:07:57.067Z,0
2022-11-09T02:08:57.077Z,0
2022-11-09T02:09:57.046Z,0
2022-11-09T02:10:57.050Z,0
2022-11-09T02:11:57.158Z,0
2022-11-09T02:12:57.059Z,0
2022-11-09T02:13:57.069Z,0
2022-11-09T02:14:57.059Z,0
2022-11-09T02:15:57.053Z,0
2022-11-09T02:16:57.067Z,0
2022-11-09T02:17:57.068Z,0
2022-11-09T02:18:57.066Z,0
2022-11-09T02:19:57.049Z,0
2022-11-09T02:20:57.058Z,0
2022-11-09T02:21:57.052Z,0
2022-11-09T02:22:57.078Z,0
2022-11-09T02:23:57.075Z,0
2022-11-09T02:24:57.053Z,0
2022-11-09T02:25:57.053Z,0
2022-11-09T02:26:57.045Z,0
2022-11-09T02:27:57.063Z,0
2022-11-09T02:28:57.072Z,0
2022-11-09T02:29:57.042Z,0
2022-11-09T02:30:57.043Z,0
2022-11-09T02:31:57.048Z,0
2022-11-09T02:32:57.049Z,0
2022-11-09T02:33:57.063Z,0
2022-11-09T02:34:57.044Z,0
2022-11-09T02:35:57.047Z,0
2022-11-09T02:36:57.054Z,0
2022-11-09T02:37:57.064Z,0
2022-11-09T02:38:57.059Z,0
2022-11-09T02:39:57.045Z,0
2022-11-09T02:40:57.044Z,0
2022-11-09T02:41:57.050Z,0
2022-11-09T02:42:57.085Z,0
2022-11-09T02:43:57.060Z,0
2022-11-09T02:44:57.045Z,0
2022-11-09T02:45:57.050Z,0
2022-11-09T02:46:57.045Z,0
2022-11-09T02:47:57.047Z,0
2022-11-09T02:48:57.063Z,0
2022-11-09T02:49:57.050Z,0
2022-11-09T02:50:57.045Z,0
2022-11-09T02:51:57.040Z,0
2022-11-09T02:52:57.059Z,0
2022-11-09T02:53:57.076Z,0
2022-11-09T02:54:57.049Z,0
2022-11-09T02:55:57.056Z,0
2022-11-09T02:56:57.045Z,0
2022-11-09T02:57:57.061Z,0
2022-11-09T02:58:57.079Z,0
2022-11-09T02:59:57.047Z,0
2022-11-09T03:00:57.095Z,0
2022-11-09T03:01:57.042Z,0
2022-11-09T03:02:57.044Z,0
2022-11-09T03:03:57.071Z,0
2022-11-09T03:04:57.058Z,0
2022-11-09T03:05:57.054Z,0
2022-11-09T03:06:57.176Z,0
2022-11-09T03:07:57.068Z,0
2022-11-09T03:08:57.064Z,0
2022-11-09T03:09:57.056Z,0
2022-11-09T03:10:57.076Z,0
2022-11-09T03:11:57.045Z,0
2022-11-09T03:12:57.049Z,0
2022-11-09T03:13:57.169Z,0
2022-11-09T03:14:57.045Z,0
2022-11-09T03:15:57.056Z,0
2022-11-09T03:16:57.055Z,0
2022-11-09T03:17:57.052Z,0
2022-11-09T03:18:57.054Z,0
2022-11-09T03:19:57.063Z,0
2022-11-09T03:20:57.067Z,0
2022-11-09T03:21:57.043Z,0
2022-11-09T03:22:57.070Z,0
2022-11-09T03:23:57.071Z,0
2022-11-09T03:24:57.046Z,0
2022-11-09T03:25:57.044Z,0
2022-11-09T03:26:57.044Z,0
2022-11-09T03:27:57.049Z,0
2022-11-09T03:28:57.067Z,0
2022-11-09T03:29:57.059Z,0
2022-11-09T03:30:57.045Z,0
2022-11-09T03:31:57.045Z,0
2022-11-09T03:32:57.058Z,0
2022-11-09T03:33:57.063Z,0
2022-11-09T03:34:57.043Z,0
2022-11-09T03:35:57.044Z,0
2022-11-09T03:36:57.137Z,0
2022-11-09T03:37:57.161Z,0
2022-11-09T03:38:57.069Z,0
2022-11-09T03:39:57.047Z,0
2022-11-09T03:40:57.052Z,0
2022-11-09T03:41:57.043Z,0
2022-11-09T03:42:57.059Z,0
2022-11-09T03:43:57.067Z,0
2022-11-09T03:44:57.051Z,0
2022-11-09T03:45:57.046Z,0
2022-11-09T03:46:57.058Z,0
2022-11-09T03:47:57.056Z,0
2022-11-09T03:48:57.063Z,0
2022-11-09T03:49:57.049Z,0
2022-11-09T03:50:57.050Z,0
2022-11-09T03:51:57.053Z,0
2022-11-09T03:52:57.068Z,0
2022-11-09T03:53:57.057Z,0
2022-11-09T03:54:57.060Z,0
2022-11-09T03:55:57.050Z,0
2022-11-09T03:56:57.110Z,0
2022-11-09T03:57:57.047Z,0
2022-11-09T03:58:57.066Z,0
2022-11-09T03:59:57.044Z,0
2022-11-09T04:00:57.044Z,0
2022-11-09T04:01:57.158Z,0
2022-11-09T04:02:57.140Z,0
2022-11-09T04:03:57.057Z,0
2022-11-09T04:04:57.043Z,0
2022-11-09T04:05:57.041Z,0
2022-11-09T04:06:57.105Z,0
2022-11-09T04:07:57.054Z,0
2022-11-09T04:08:57.069Z,0
2022-11-09T04:09:57.049Z,0
2022-11-09T04:10:57.047Z,0
2022-11-09T04:11:57.051Z,0
2022-11-09T04:12:57.059Z,0
2022-11-09T04:13:57.062Z,0
2022-11-09T04:14:57.051Z,0
2022-11-09T04:15:57.051Z,0
2022-11-09T04:16:57.053Z,0
2022-11-09T04:17:57.042Z,0
2022-11-09T04:18:57.064Z,0
2022-11-09T04:19:57.051Z,0
2022-11-09T04:20:57.047Z,0
2022-11-09T04:21:57.045Z,0
2022-11-09T04:22:57.067Z,0
2022-11-09T04:23:57.063Z,0
2022-11-09T04:24:57.041Z,0
2022-11-09T04:25:57.055Z,0
2022-11-09T04:26:57.051Z,0
2022-11-09T04:27:57.067Z,0
2022-11-09T04:28:57.073Z,0
2022-11-09T04:29:57.048Z,0
2022-11-09T04:30:57.060Z,0
2022-11-09T04:31:57.055Z,0
2022-11-09T04:32:57.055Z,0
2022-11-09T04:33:57.090Z,0
2022-11-09T04:34:57.046Z,0
2022-11-09T04:35:57.049Z,0
2022-11-09T04:36:57.050Z,0
2022-11-09T04:37:57.066Z,0
2022-11-09T04:38:57.062Z,0
2022-11-09T04:39:57.053Z,0
2022-11-09T04:40:57.053Z,0
2022-11-09T04:41:57.046Z,0
2022-11-09T04:42:57.049Z,0
2022-11-09T04:43:57.075Z,0
2022-11-09T04:44:57.062Z,0
2022-11-09T04:45:57.050Z,0
2022-11-09T04:46:57.062Z,0
2022-11-09T04:47:57.045Z,0
2022-11-09T04:48:57.063Z,0
2022-11-09T04:49:57.051Z,0
2022-11-09T04:50:57.047Z,0
2022-11-09T04:51:57.047Z,0
2022-11-09T04:52:57.066Z,0
2022-11-09T04:53:57.060Z,0
2022-11-09T04:54:57.062Z,0
2022-11-09T04:55:57.047Z,0
2022-11-09T04:56:57.055Z,0
2022-11-09T04:57:57.052Z,0
2022-11-09T04:58:57.079Z,0
2022-11-09T04:59:57.052Z,0
2022-11-09T05:00:57.053Z,0
2022-11-09T05:01:57.055Z,0
2022-11-09T05:02:57.041Z,0
2022-11-09T05:03:57.130Z,0
2022-11-09T05:04:57.043Z,0
2022-11-09T05:05:57.045Z,0
2022-11-09T05:06:57.087Z,0
2022-11-09T05:07:57.075Z,0
2022-11-09T05:08:57.075Z,0
2022-11-09T05:09:57.056Z,0
2022-11-09T05:10:57.051Z,0
2022-11-09T05:11:57.076Z,0
2022-11-09T05:12:57.041Z,0
2022-11-09T05:13:57.056Z,0
2022-11-09T05:14:57.042Z,0
2022-11-09T05:15:57.042Z,0
2022-11-09T05:16:57.048Z,0
2022-11-09T05:17:57.048Z,0
2022-11-09T05:18:57.055Z,0
2022-11-09T05:19:57.045Z,0
2022-11-09T05:20:57.045Z,0
2022-11-09T05:21:57.070Z,0
2022-11-09T05:22:57.308Z,0
2022-11-09T05:23:57.067Z,0
2022-11-09T05:24:57.049Z,0
2022-11-09T05:25:57.053Z,0
2022-11-09T05:26:57.056Z,0
2022-11-09T05:27:57.059Z,0
2022-11-09T05:28:57.077Z,0
2022-11-09T05:29:57.055Z,0
2022-11-09T05:30:57.070Z,0
2022-11-09T05:31:57.054Z,0
2022-11-09T05:32:57.049Z,0
2022-11-09T05:33:57.078Z,0
2022-11-09T05:34:57.045Z,0
2022-11-09T05:35:57.047Z,0
2022-11-09T05:37:02.244Z,0
2022-11-09T05:37:57.064Z,0
2022-11-09T05:38:57.084Z,0
2022-11-09T05:39:57.069Z,0
2022-11-09T05:40:57.055Z,0
2022-11-09T05:41:57.052Z,0
2022-11-09T05:42:57.055Z,0
2022-11-09T05:43:57.072Z,0
2022-11-09T05:44:57.059Z,0
2022-11-09T05:45:57.051Z,0
2022-11-09T05:46:57.050Z,0
2022-11-09T05:47:57.124Z,0
2022-11-09T05:48:57.069Z,0
2022-11-09T05:49:57.051Z,0
2022-11-09T05:50:57.062Z,0
2022-11-09T05:51:57.047Z,0
2022-11-09T05:52:57.048Z,0
2022-11-09T05:53:57.065Z,0
2022-11-09T05:54:57.040Z,0
2022-11-09T05:55:57.051Z,0
2022-11-09T05:56:57.062Z,0
2022-11-09T05:57:57.046Z,0
2022-11-09T05:58:57.060Z,0
2022-11-09T05:59:57.053Z,0
2022-11-09T06:00:57.059Z,0
2022-11-09T06:01:57.110Z,0
2022-11-09T06:02:57.058Z,0
2022-11-09T06:03:57.078Z,0.01
2022-11-09T06:04:57.044Z,0
2022-11-09T06:05:57.054Z,0
2022-11-09T06:06:57.117Z,0
2022-11-09T06:07:57.052Z,0
2022-11-09T06:08:57.072Z,0
2022-11-09T06:09:57.067Z,0.01
2022-11-09T06:10:57.051Z,0.01
2022-11-09T06:11:57.047Z,0.01
2022-11-09T06:12:57.062Z,0.01
2022-11-09T06:13:57.075Z,0.01
2022-11-09T06:14:57.043Z,0.01
2022-11-09T06:15:57.051Z,0.02
2022-11-09T06:16:57.050Z,0.02
2022-11-09T06:17:57.045Z,0.02
2022-11-09T06:18:57.118Z,0.02
2022-11-09T06:19:57.042Z,0.02
2022-11-09T06:20:57.045Z,0.02
2022-11-09T06:21:57.061Z,0.03
2022-11-09T06:23:02.489Z,0.04
2022-11-09T06:23:57.160Z,0.04
2022-11-09T06:24:57.127Z,0.04
2022-11-09T06:25:57.050Z,0.05
2022-11-09T06:26:57.048Z,0.06
2022-11-09T06:27:57.058Z,0.06
2022-11-09T06:28:57.078Z,0.07
2022-11-09T06:29:57.056Z,0.08
2022-11-09T06:30:57.048Z,0.09
2022-11-09T06:31:57.047Z,0.1
2022-11-09T06:32:57.045Z,0.1
2022-11-09T06:33:57.068Z,0.11
2022-11-09T06:34:57.039Z,0.12
2022-11-09T06:35:57.049Z,0.12
2022-11-09T06:36:57.052Z,0.13
2022-11-09T06:37:57.057Z,0.14
2022-11-09T06:38:57.066Z,0.15
2022-11-09T06:39:57.054Z,0.15
2022-11-09T06:40:57.048Z,0.16
2022-11-09T06:41:57.060Z,0.16
2022-11-09T06:42:57.060Z,0.16
2022-11-09T06:43:57.063Z,0.16
2022-11-09T06:44:57.063Z,0.17
2022-11-09T06:45:57.057Z,0.17
2022-11-09T06:46:57.058Z,0.18
2022-11-09T06:47:57.057Z,0.17
2022-11-09T06:48:57.060Z,0.18
2022-11-09T06:49:57.108Z,0.2
2022-11-09T06:50:57.044Z,0.21
2022-11-09T06:51:57.045Z,0.23
2022-11-09T06:52:57.045Z,0.22
2022-11-09T06:53:57.069Z,0.21
2022-11-09T06:54:57.046Z,0.19
2022-11-09T06:55:57.082Z,0.17
2022-11-09T06:56:57.051Z,0.17
2022-11-09T06:57:57.055Z,0.2
2022-11-09T06:58:57.106Z,0.18
2022-11-09T06:59:57.056Z,0.16
2022-11-09T07:00:57.123Z,0.15
2022-11-09T07:02:01.286Z,0.16
2022-11-09T07:02:57.049Z,0.15
2022-11-09T07:03:57.065Z,0.15
2022-11-09T07:04:57.043Z,0.16
2022-11-09T07:05:57.059Z,0.17
2022-11-09T07:06:57.107Z,0.17
2022-11-09T07:07:57.042Z,0.16
2022-11-09T07:08:57.068Z,0.16
2022-11-09T07:09:57.057Z,0.17
2022-11-09T07:10:57.052Z,0.15
2022-11-09T07:11:57.060Z,0.14
2022-11-09T07:12:57.046Z,0.13
2022-11-09T07:13:57.538Z,0.14
2022-11-09T07:14:57.046Z,0.15
2022-11-09T07:15:57.055Z,0.14
2022-11-09T07:16:57.052Z,0.17
2022-11-09T07:17:57.049Z,0.21
2022-11-09T07:18:57.067Z,0.28
2022-11-09T07:19:57.057Z,0.28
2022-11-09T07:20:57.052Z,0.41
2022-11-09T07:21:57.051Z,0.35
2022-11-09T07:22:57.043Z,0.21
2022-11-09T07:23:57.071Z,0.18
2022-11-09T07:24:57.060Z,0.2
2022-11-09T07:25:57.048Z,0.21
2022-11-09T07:26:57.064Z,0.23
2022-11-09T07:27:57.060Z,0.21
2022-11-09T07:28:57.067Z,0.23
2022-11-09T07:29:57.057Z,0.28
2022-11-09T07:30:57.050Z,0.22
2022-11-09T07:31:57.051Z,0.25
2022-11-09T07:33:09.991Z,0.28
2022-11-09T07:33:57.068Z,0.28
2022-11-09T07:34:57.046Z,0.31
2022-11-09T07:35:57.044Z,0.33
2022-11-09T07:36:57.046Z,0.33
2022-11-09T07:37:57.042Z,0.31
2022-11-09T07:38:57.060Z,0.32
2022-11-09T07:39:57.048Z,0.34
2022-11-09T07:40:57.048Z,0.53
2022-11-09T07:41:57.050Z,0.43
2022-11-09T07:42:57.049Z,0.36
2022-11-09T07:43:57.058Z,0.36
2022-11-09T07:44:57.043Z,0.33
2022-11-09T07:45:57.060Z,0.42
2022-11-09T07:46:57.066Z,0.38
2022-11-09T07:47:57.045Z,0.47
2022-11-09T07:48:57.062Z,0.44
2022-11-09T07:49:57.041Z,0.43
2022-11-09T07:50:57.049Z,0.48
2022-11-09T07:51:57.080Z,0.56
2022-11-09T07:52:57.053Z,0.62
2022-11-09T07:53:57.060Z,0.72
2022-11-09T07:54:57.047Z,0.72
2022-11-09T07:55:57.041Z,0.72
2022-11-09T07:56:57.055Z,1.11
2022-11-09T07:57:57.062Z,1.08
2022-11-09T07:58:57.065Z,1.06
2022-11-09T07:59:57.053Z,1.13
2022-11-09T08:00:57.053Z,1.02
2022-11-09T08:01:57.067Z,1.04
2022-11-09T08:02:57.062Z,1.05
2022-11-09T08:03:57.054Z,1.31
2022-11-09T08:04:57.057Z,1.31
2022-11-09T08:05:57.057Z,1.63
2022-11-09T08:06:57.108Z,1.65
2022-11-09T08:07:57.071Z,1.62
2022-11-09T08:08:57.075Z,1.62
2022-11-09T08:09:57.139Z,1.57
2022-11-09T08:10:57.054Z,1.7
2022-11-09T08:11:57.049Z,1.64
2022-11-09T08:12:57.057Z,1.99
2022-11-09T08:13:57.074Z,2.42
2022-11-09T08:14:57.059Z,3.1
2022-11-09T08:15:57.050Z,2.38
2022-11-09T08:16:57.049Z,3.38
2022-11-09T08:17:57.046Z,3.84
2022-11-09T08:18:57.070Z,2.86
2022-11-09T08:19:57.047Z,1.52
2022-11-09T08:20:57.048Z,1.63
2022-11-09T08:21:57.055Z,2.56
2022-11-09T08:23:02.327Z,2.78
2022-11-09T08:23:57.077Z,2.78
2022-11-09T08:24:57.052Z,0.96
2022-11-09T08:25:57.046Z,1.27
2022-11-09T08:26:57.045Z,1.44
2022-11-09T08:27:57.055Z,1.3
2022-11-09T08:28:57.064Z,1.18
2022-11-09T08:29:57.058Z,1.09
2022-11-09T08:30:57.051Z,1.16
2022-11-09T08:31:57.047Z,1.12
2022-11-09T08:32:57.054Z,1.11
2022-11-09T08:33:57.066Z,1.18
2022-11-09T08:34:57.054Z,1.19
2022-11-09T08:35:57.056Z,1.17
2022-11-09T08:36:57.057Z,1.23
2022-11-09T08:37:57.047Z,1.21
2022-11-09T08:38:57.075Z,1.08
2022-11-09T08:39:57.043Z,1.08
2022-11-09T08:40:57.083Z,1.15
2022-11-09T08:41:57.051Z,1
2022-11-09T08:42:57.046Z,1.15
2022-11-09T08:43:57.073Z,1.1
2022-11-09T08:44:57.043Z,1.3
2022-11-09T08:45:57.056Z,1.31
2022-11-09T08:46:57.047Z,1.23
2022-11-09T08:47:57.052Z,1.84
2022-11-09T08:48:57.084Z,2.54
2022-11-09T08:49:57.046Z,4.25
2022-11-09T08:50:57.058Z,3.76
2022-11-09T08:51:57.045Z,2.87
2022-11-09T08:53:04.151Z,3.53
2022-11-09T08:54:02.700Z,3.18
2022-11-09T08:55:02.659Z,2.62
2022-11-09T08:56:02.678Z,3.45
2022-11-09T08:57:02.670Z,3.32
2022-11-09T08:58:02.655Z,2.41
2022-11-09T08:59:02.681Z,2.47
2022-11-09T09:00:02.676Z,2.55
2022-11-09T09:01:02.691Z,3.04
2022-11-09T09:02:02.691Z,1.43
2022-11-09T09:03:02.662Z,2.16
2022-11-09T09:04:02.670Z,2.3
2022-11-09T09:05:02.663Z,2.19
2022-11-09T09:06:02.659Z,1.44
2022-11-09T09:07:02.717Z,1.3
2022-11-09T09:08:02.648Z,1.01
2022-11-09T09:09:02.834Z,1.01
2022-11-09T09:10:02.666Z,1.19
2022-11-09T09:11:02.685Z,1.88
2022-11-09T09:12:02.656Z,1.48
2022-11-09T09:13:02.657Z,1.19
2022-11-09T09:14:02.678Z,1.13
2022-11-09T09:15:02.656Z,0.87
2022-11-09T09:16:02.657Z,0.79
2022-11-09T09:17:02.668Z,0.95
2022-11-09T09:18:02.661Z,0.86
2022-11-09T09:19:02.673Z,0.85
2022-11-09T09:20:02.676Z,0.78
2022-11-09T09:21:02.657Z,0.8
2022-11-09T09:22:02.656Z,0.83
2022-11-09T09:23:02.658Z,0.9
2022-11-09T09:24:02.652Z,1.37
2022-11-09T09:25:02.690Z,1.67
2022-11-09T09:26:02.665Z,1.41
2022-11-09T09:27:02.655Z,1.53
2022-11-09T09:28:02.659Z,1.33
2022-11-09T09:29:02.675Z,1.27
2022-11-09T09:30:02.653Z,1.87
2022-11-09T09:31:02.657Z,2.56
2022-11-09T09:32:02.651Z,1.99
2022-11-09T09:33:02.656Z,2.17
2022-11-09T09:34:02.673Z,1.93
2022-11-09T09:35:02.647Z,1.89
2022-11-09T09:36:02.656Z,1.88
2022-11-09T09:37:02.690Z,1.33
2022-11-09T09:38:02.659Z,1.28
2022-11-09T09:39:02.682Z,1.43
2022-11-09T09:40:02.655Z,1.17
2022-11-09T09:41:02.643Z,1.17
2022-11-09T09:42:02.638Z,1.05
2022-11-09T09:43:02.632Z,1.21
2022-11-09T09:44:02.673Z,1.26
2022-11-09T09:45:02.648Z,1.68
2022-11-09T09:46:02.648Z,1.41
2022-11-09T09:47:02.638Z,1.22
2022-11-09T09:48:02.644Z,1.32
2022-11-09T09:49:02.654Z,1.97
2022-11-09T09:50:02.733Z,1.26
2022-11-09T09:51:02.637Z,1.11
2022-11-09T09:52:02.643Z,1.19
2022-11-09T09:53:23.249Z,1.07
2022-11-09T09:54:02.677Z,1.01
2022-11-09T09:55:02.633Z,0.99
2022-11-09T09:56:02.652Z,0.98
2022-11-09T09:57:02.630Z,0.92
2022-11-09T09:58:02.631Z,0.94
2022-11-09T09:59:02.646Z,0.77
2022-11-09T10:00:02.660Z,0.83
2022-11-09T10:01:02.635Z,0.93
2022-11-09T10:02:02.644Z,0.97
2022-11-09T10:03:02.660Z,1.26
2022-11-09T10:04:02.764Z,1.48
2022-11-09T10:05:02.657Z,1.69
2022-11-09T10:06:02.660Z,1.66
2022-11-09T10:07:02.767Z,1.58
2022-11-09T10:08:02.653Z,1.85
2022-11-09T10:09:02.680Z,1.85
2022-11-09T10:10:02.639Z,1.89
2022-11-09T10:11:02.654Z,2.17
2022-11-09T10:12:02.659Z,4.44
2022-11-09T10:13:02.655Z,4.03
2022-11-09T10:14:02.670Z,5.4
2022-11-09T10:15:02.652Z,6.5
2022-11-09T10:16:02.640Z,6.88
2022-11-09T10:17:02.650Z,6.96
2022-11-09T10:18:02.655Z,6.53
2022-11-09T10:19:02.657Z,6.82
2022-11-09T10:20:02.663Z,7.31
2022-11-09T10:21:02.652Z,7.34
2022-11-09T10:22:02.652Z,7.03
2022-11-09T10:23:02.634Z,5.26
2022-11-09T10:24:02.656Z,2.9
2022-11-09T10:25:32.566Z,6.01
2022-11-09T10:26:05.295Z,3.56
2022-11-09T10:27:02.656Z,6.36
2022-11-09T10:28:02.640Z,7.73
2022-11-09T10:29:16.007Z,6.34
2022-11-09T10:30:02.638Z,6.98
2022-11-09T10:31:02.662Z,6.25
2022-11-09T10:32:02.658Z,6.83
2022-11-09T10:33:02.644Z,6.33
2022-11-09T10:34:02.668Z,6.82
2022-11-09T10:35:02.660Z,6.97
2022-11-09T10:36:07.886Z,6.39
2022-11-09T10:37:02.654Z,7.04
2022-11-09T10:38:02.654Z,5.64
2022-11-09T10:39:02.674Z,6.47
2022-11-09T10:40:02.753Z,7.74
2022-11-09T10:41:02.655Z,6.71
2022-11-09T10:42:02.648Z,7.23
2022-11-09T10:43:02.629Z,7
2022-11-09T10:44:02.655Z,6.9
2022-11-09T10:45:02.650Z,3.64
2022-11-09T10:46:02.657Z,6.26
2022-11-09T10:47:02.641Z,5.81
2022-11-09T10:48:02.635Z,6.47
2022-11-09T10:49:02.646Z,6.89
2022-11-09T10:50:02.650Z,6.41
2022-11-09T10:51:02.639Z,6.82
2022-11-09T10:52:02.630Z,5.82
2022-11-09T10:53:02.629Z,6.96
2022-11-09T10:54:02.643Z,6.96
2022-11-09T10:55:02.634Z,5.43
2022-11-09T10:56:02.642Z,3.6
2022-11-09T10:57:06.685Z,3.32
2022-11-09T10:58:02.633Z,4
2022-11-09T10:59:03.019Z,6.18
2022-11-09T11:00:02.649Z,5.43
2022-11-09T11:01:02.634Z,5.49
2022-11-09T11:02:02.721Z,5.69
2022-11-09T11:03:02.645Z,5.8
2022-11-09T11:04:03.249Z,5.62
2022-11-09T11:05:02.652Z,5.07
2022-11-09T11:06:02.633Z,4.54
2022-11-09T11:07:02.747Z,4.77
2022-11-09T11:08:02.628Z,5.09
2022-11-09T11:09:02.864Z,5.09
2022-11-09T11:10:02.652Z,4.38
2022-11-09T11:11:27.168Z,4.17
2022-11-09T11:12:02.664Z,3.84
2022-11-09T11:13:02.663Z,3.37
2022-11-09T11:14:02.659Z,3.15
2022-11-09T11:15:02.655Z,3.26
2022-11-09T11:16:02.954Z,3.36
2022-11-09T11:17:02.633Z,3.36
2022-11-09T11:18:02.905Z,3.71
2022-11-09T11:19:02.665Z,3.61
2022-11-09T11:20:02.637Z,3.58
2022-11-09T11:21:02.657Z,3.45
2022-11-09T11:22:02.649Z,3.22
2022-11-09T11:23:03.076Z,3.23
2022-11-09T11:24:02.664Z,3.58
2022-11-09T11:25:02.644Z,3.86
2022-11-09T11:26:02.658Z,3.44
2022-11-09T11:27:06.565Z,3.18
2022-11-09T11:28:03.107Z,3.33
2022-11-09T11:29:02.775Z,3.02
2022-11-09T11:30:02.640Z,4.55
2022-11-09T11:31:02.648Z,4.04
2022-11-09T11:32:02.648Z,2.48
2022-11-09T11:33:02.870Z,3.36
2022-11-09T11:34:02.663Z,3.67
2022-11-09T11:35:02.765Z,2.2
2022-11-09T11:36:02.649Z,2.41
2022-11-09T11:37:02.655Z,2.73
2022-11-09T11:38:02.667Z,3.41
2022-11-09T11:39:02.668Z,1.99
2022-11-09T11:40:02.636Z,1.58
2022-11-09T11:41:02.669Z,1.4
2022-11-09T11:42:02.660Z,1.35
2022-11-09T11:43:02.653Z,1.36
2022-11-09T11:44:02.697Z,1.45
2022-11-09T11:45:33.507Z,1.66
2022-11-09T11:46:02.655Z,1.63
2022-11-09T11:47:02.657Z,1.72
2022-11-09T11:48:02.655Z,1.98
2022-11-09T11:49:02.662Z,1.94
2022-11-09T11:50:03.091Z,2.29
2022-11-09T11:51:02.680Z,1.89
2022-11-09T11:52:02.653Z,1.78
2022-11-09T11:53:02.632Z,1.78
2022-11-09T11:54:02.659Z,2.02
2022-11-09T11:55:02.644Z,1.9
2022-11-09T11:56:02.632Z,1.85
2022-11-09T11:57:02.631Z,1.85
2022-11-09T11:58:02.636Z,1.78
2022-11-09T11:59:02.649Z,1.89
2022-11-09T12:00:02.650Z,2.49
2022-11-09T12:01:02.630Z,3.05
2022-11-09T12:02:02.634Z,3.21
2022-11-09T12:03:02.721Z,3.18
2022-11-09T12:04:02.649Z,3.38
2022-11-09T12:05:02.637Z,2.27
2022-11-09T12:06:02.639Z,1.76
2022-11-09T12:07:02.708Z,1.65
2022-11-09T12:08:02.632Z,1.61
2022-11-09T12:09:02.663Z,1.61
2022-11-09T12:10:02.636Z,1.55
2022-11-09T12:11:02.634Z,1.46
2022-11-09T12:12:02.636Z,1.29
2022-11-09T12:13:02.648Z,1.17
2022-11-09T12:14:02.647Z,1.07
2022-11-09T12:15:02.647Z,1.02
2022-11-09T12:16:02.647Z,0.96
2022-11-09T12:17:02.645Z,0.93
2022-11-09T12:18:02.645Z,0.93
2022-11-09T12:19:02.660Z,0.96
2022-11-09T12:20:02.646Z,1.02
2022-11-09T12:21:02.650Z,1.07
2022-11-09T12:22:02.647Z,1.09
2022-11-09T12:23:02.657Z,1.07
2022-11-09T12:24:02.662Z,1.04
2022-11-09T12:25:02.652Z,1.01
2022-11-09T12:26:02.650Z,0.99
2022-11-09T12:27:30.566Z,0.95
2022-11-09T12:28:02.645Z,0.94
2022-11-09T12:29:02.667Z,0.92
2022-11-09T12:30:02.643Z,0.93
2022-11-09T12:31:02.644Z,0.94
2022-11-09T12:32:02.655Z,0.93
2022-11-09T12:33:02.643Z,0.93
2022-11-09T12:34:02.668Z,0.97
2022-11-09T12:35:02.645Z,0.96
2022-11-09T12:36:02.712Z,0.91
2022-11-09T12:37:02.643Z,0.83
2022-11-09T12:38:02.664Z,0.77
2022-11-09T12:39:02.679Z,0.77
2022-11-09T12:40:02.663Z,0.78
2022-11-09T12:41:02.648Z,0.77
2022-11-09T12:42:02.654Z,0.75
2022-11-09T12:43:02.652Z,0.72
2022-11-09T12:44:02.668Z,0.68
2022-11-09T12:45:02.661Z,0.63
2022-11-09T12:46:02.650Z,0.56
2022-11-09T12:47:02.647Z,0.54
2022-11-09T12:48:02.643Z,0.5
2022-11-09T12:49:02.668Z,0.48
2022-11-09T12:50:02.643Z,0.48
2022-11-09T12:51:02.647Z,0.47
2022-11-09T12:52:02.659Z,0.45
2022-11-09T12:53:02.643Z,0.44
2022-11-09T12:54:02.658Z,0.44
2022-11-09T12:55:02.648Z,0.47
2022-11-09T12:56:02.663Z,0.57
2022-11-09T12:57:02.659Z,0.79
2022-11-09T12:58:02.637Z,1.53
2022-11-09T12:59:02.671Z,1.7
2022-11-09T13:00:02.659Z,2.07
2022-11-09T13:01:02.654Z,2.27
2022-11-09T13:02:02.733Z,2.21
2022-11-09T13:03:02.633Z,1.91
2022-11-09T13:04:02.664Z,1.84
2022-11-09T13:05:02.645Z,2.55
2022-11-09T13:06:02.770Z,2.13
2022-11-09T13:07:02.669Z,1.7
2022-11-09T13:08:02.641Z,1.61
2022-11-09T13:09:02.666Z,1.61
2022-11-09T13:10:02.655Z,1.2
2022-11-09T13:11:02.635Z,0.96
2022-11-09T13:12:02.629Z,0.93
2022-11-09T13:13:02.644Z,0.92
2022-11-09T13:14:02.700Z,0.89
2022-11-09T13:15:02.636Z,0.91
2022-11-09T13:16:02.631Z,0.94
2022-11-09T13:17:02.630Z,0.98
2022-11-09T13:18:02.641Z,1.06
2022-11-09T13:19:02.649Z,1.53
2022-11-09T13:20:02.650Z,1.74
2022-11-09T13:21:02.666Z,1.64
2022-11-09T13:22:02.634Z,1.55
2022-11-09T13:23:02.667Z,1.23
2022-11-09T13:24:04.620Z,0.99
2022-11-09T13:25:02.648Z,0.85
2022-11-09T13:26:02.650Z,0.76
2022-11-09T13:27:02.712Z,0.79
2022-11-09T13:28:02.651Z,0.79
2022-11-09T13:29:02.664Z,0.89
2022-11-09T13:30:02.674Z,0.85
2022-11-09T13:31:02.647Z,0.84
2022-11-09T13:32:02.643Z,0.84
2022-11-09T13:33:02.710Z,0.83
2022-11-09T13:34:02.665Z,0.79
2022-11-09T13:35:02.647Z,0.81
2022-11-09T13:36:02.657Z,0.83
2022-11-09T13:37:02.651Z,0.78
2022-11-09T13:38:07.212Z,0.77
2022-11-09T13:39:02.658Z,0.76
2022-11-09T13:40:02.633Z,0.86
2022-11-09T13:41:02.661Z,0.88
2022-11-09T13:42:02.650Z,0.99
2022-11-09T13:43:02.651Z,1.96
2022-11-09T13:44:02.669Z,1.84
2022-11-09T13:45:02.674Z,1.23
2022-11-09T13:46:02.648Z,0.98
2022-11-09T13:47:02.653Z,1.18
2022-11-09T13:48:02.633Z,1.32
2022-11-09T13:49:02.668Z,1.16
2022-11-09T13:50:02.632Z,0.78
2022-11-09T13:51:02.656Z,0.73
2022-11-09T13:52:02.658Z,0.76
2022-11-09T13:53:02.652Z,0.78
2022-11-09T13:54:02.668Z,1.12
2022-11-09T13:55:02.650Z,0.85
2022-11-09T13:56:02.649Z,0.92
2022-11-09T13:57:02.652Z,1.18